createdAt,value
2018-09-23T00:00:57.684Z,0.00
2018-09-23T00:01:57.693Z,0.00
2018-09-23T00:02:57.688Z,0.00
2018-09-23T00:03:57.658Z,0.00
2018-09-23T00:04:57.628Z,0.00
2018-09-23T00:05:57.617Z,0.00
2018-09-23T00:06:57.609Z,0.00
2018-09-23T00:07:57.605Z,0.00
2018-09-23T00:08:57.585Z,0.00
2018-09-23T00:10:06.633Z,0.00
2018-09-23T00:10:57.686Z,0.00
2018-09-23T00:11:57.610Z,0.00
2018-09-23T00:12:57.571Z,0.00
2018-09-23T00:13:57.529Z,0.00
2018-09-23T00:14:57.537Z,0.00
2018-09-23T00:15:57.504Z,0.00
2018-09-23T00:16:57.544Z,0.00
2018-09-23T00:17:57.483Z,0.00
2018-09-23T00:18:57.485Z,0.00
2018-09-23T00:19:57.461Z,0.00
2018-09-23T00:20:57.447Z,0.00
2018-09-23T00:21:57.437Z,0.00
2018-09-23T00:22:57.440Z,0.00
2018-09-23T00:23:57.440Z,0.00
2018-09-23T00:24:57.403Z,0.00
2018-09-23T00:25:57.391Z,0.00
2018-09-23T00:26:57.411Z,0.00
2018-09-23T00:27:57.369Z,0.00
2018-09-23T00:28:57.374Z,0.00
2018-09-23T00:29:57.356Z,0.00
2018-09-23T00:30:57.335Z,0.00
2018-09-23T00:31:57.323Z,0.00
2018-09-23T00:32:57.312Z,0.00
2018-09-23T00:33:57.308Z,0.00
2018-09-23T00:34:57.309Z,0.00
2018-09-23T00:35:57.301Z,0.00
2018-09-23T00:36:57.273Z,0.00
2018-09-23T00:37:57.266Z,0.00
2018-09-23T00:38:57.245Z,0.00
2018-09-23T00:39:57.235Z,0.00
2018-09-23T00:40:57.240Z,0.00
2018-09-23T00:41:57.229Z,0.00
2018-09-23T00:42:57.199Z,0.00
2018-09-23T00:43:57.192Z,0.00
2018-09-23T00:44:57.199Z,0.00
2018-09-23T00:45:57.165Z,0.00
2018-09-23T00:46:57.172Z,0.00
2018-09-23T00:47:57.153Z,0.00
2018-09-23T00:48:57.131Z,0.00
2018-09-23T00:49:57.123Z,0.00
2018-09-23T00:50:57.121Z,0.00
2018-09-23T00:51:57.108Z,0.00
2018-09-23T00:52:57.103Z,0.00
2018-09-23T00:53:57.084Z,0.00
2018-09-23T00:54:57.068Z,0.00
2018-09-23T00:55:57.058Z,0.00
2018-09-23T00:56:57.046Z,0.00
2018-09-23T00:57:57.101Z,0.00
2018-09-23T00:58:57.042Z,0.00
2018-09-23T00:59:57.016Z,0.00
2018-09-23T01:00:56.999Z,0.00
2018-09-23T01:01:56.987Z,0.00
2018-09-23T01:02:56.978Z,0.00
2018-09-23T01:03:56.962Z,0.00
2018-09-23T01:04:56.970Z,0.00
2018-09-23T01:05:56.972Z,0.00
2018-09-23T01:06:56.932Z,0.00
2018-09-23T01:07:56.926Z,0.00
2018-09-23T01:08:56.907Z,0.00
2018-09-23T01:09:56.901Z,0.00
2018-09-23T01:10:56.908Z,0.00
2018-09-23T01:11:56.892Z,0.00
2018-09-23T01:12:56.878Z,0.00
2018-09-23T01:13:56.852Z,0.00
2018-09-23T01:14:56.878Z,0.00
2018-09-23T01:15:56.830Z,0.00
2018-09-23T01:16:56.835Z,0.00
2018-09-23T01:17:56.839Z,0.00
2018-09-23T01:18:56.795Z,0.00
2018-09-23T01:19:56.785Z,0.00
2018-09-23T01:20:56.771Z,0.00
2018-09-23T01:21:56.761Z,0.00
2018-09-23T01:22:56.774Z,0.00
2018-09-23T01:23:56.740Z,0.00
2018-09-23T01:24:56.734Z,0.00
2018-09-23T01:25:56.716Z,0.00
2018-09-23T01:26:56.736Z,0.00
2018-09-23T01:28:04.324Z,0.00
2018-09-23T01:28:56.690Z,0.00
2018-09-23T01:29:56.773Z,0.00
2018-09-23T01:30:56.692Z,0.00
2018-09-23T01:31:56.674Z,0.00
2018-09-23T01:32:56.686Z,0.00
2018-09-23T01:33:56.667Z,0.00
2018-09-23T01:34:56.614Z,0.00
2018-09-23T01:35:56.650Z,0.00
2018-09-23T01:36:56.623Z,0.00
2018-09-23T01:37:56.584Z,0.00
2018-09-23T01:38:56.569Z,0.00
2018-09-23T01:39:56.565Z,0.00
2018-09-23T01:40:56.555Z,0.00
2018-09-23T01:41:56.547Z,0.00
2018-09-23T01:42:56.523Z,0.00
2018-09-23T01:43:56.526Z,0.00
2018-09-23T01:44:56.529Z,0.00
2018-09-23T01:46:04.116Z,0.00
2018-09-23T01:46:56.509Z,0.00
2018-09-23T01:47:56.496Z,0.00
2018-09-23T01:48:56.479Z,0.00
2018-09-23T01:49:56.462Z,0.00
2018-09-23T01:50:56.450Z,0.00
2018-09-23T01:51:56.490Z,0.00
2018-09-23T01:52:56.413Z,0.00
2018-09-23T01:53:56.440Z,0.00
2018-09-23T01:54:56.450Z,0.00
2018-09-23T01:55:56.390Z,0.00
2018-09-23T01:56:56.408Z,0.00
2018-09-23T01:57:56.363Z,0.00
2018-09-23T01:58:56.343Z,0.00
2018-09-23T01:59:56.365Z,0.00
2018-09-23T02:00:56.321Z,0.00
2018-09-23T02:01:56.310Z,0.00
2018-09-23T02:02:56.328Z,0.00
2018-09-23T02:03:56.352Z,0.00
2018-09-23T02:05:05.593Z,0.00
2018-09-23T02:05:56.279Z,0.00
2018-09-23T02:06:56.314Z,0.00
2018-09-23T02:07:56.267Z,0.00
2018-09-23T02:08:56.266Z,0.00
2018-09-23T02:09:56.240Z,0.00
2018-09-23T02:10:56.241Z,0.00
2018-09-23T02:11:56.211Z,0.00
2018-09-23T02:12:56.198Z,0.00
2018-09-23T02:13:56.210Z,0.00
2018-09-23T02:14:56.175Z,0.00
2018-09-23T02:15:56.152Z,0.00
2018-09-23T02:16:56.160Z,0.00
2018-09-23T02:17:56.152Z,0.00
2018-09-23T02:19:04.015Z,0.00
2018-09-23T02:19:56.161Z,0.00
2018-09-23T02:20:56.123Z,0.00
2018-09-23T02:21:56.084Z,0.00
2018-09-23T02:22:56.125Z,0.00
2018-09-23T02:23:56.107Z,0.00
2018-09-23T02:24:56.076Z,0.00
2018-09-23T02:25:56.091Z,0.00
2018-09-23T02:26:56.040Z,0.00
2018-09-23T02:27:56.012Z,0.00
2018-09-23T02:28:56.023Z,0.00
2018-09-23T02:29:56.019Z,0.00
2018-09-23T02:30:55.981Z,0.00
2018-09-23T02:31:55.988Z,0.00
2018-09-23T02:32:55.964Z,0.00
2018-09-23T02:34:03.939Z,0.00
2018-09-23T02:34:55.941Z,0.00
2018-09-23T02:35:55.978Z,0.00
2018-09-23T02:36:55.943Z,0.00
2018-09-23T02:37:55.994Z,0.00
2018-09-23T02:38:55.944Z,0.00
2018-09-23T02:39:55.896Z,0.00
2018-09-23T02:40:55.871Z,0.00
2018-09-23T02:41:55.874Z,0.00
2018-09-23T02:42:55.846Z,0.00
2018-09-23T02:43:55.888Z,0.00
2018-09-23T02:44:55.822Z,0.00
2018-09-23T02:45:55.812Z,0.00
2018-09-23T02:46:55.835Z,0.00
2018-09-23T02:48:03.447Z,0.00
2018-09-23T02:48:55.816Z,0.00
2018-09-23T02:49:55.787Z,0.00
2018-09-23T02:50:55.801Z,0.00
2018-09-23T02:51:55.820Z,0.00
2018-09-23T02:52:55.739Z,0.00
2018-09-23T02:53:55.777Z,0.00
2018-09-23T02:54:55.739Z,0.00
2018-09-23T02:55:55.832Z,0.00
2018-09-23T02:56:55.705Z,0.00
2018-09-23T02:57:55.704Z,0.00
2018-09-23T02:58:55.668Z,0.00
2018-09-23T02:59:55.658Z,0.00
2018-09-23T03:00:55.656Z,0.00
2018-09-23T03:01:55.669Z,0.00
2018-09-23T03:02:55.691Z,0.00
2018-09-23T03:03:55.610Z,0.00
2018-09-23T03:04:55.597Z,0.00
2018-09-23T03:05:55.604Z,0.00
2018-09-23T03:06:55.579Z,0.00
2018-09-23T03:07:55.575Z,0.00
2018-09-23T03:08:55.578Z,0.00
2018-09-23T03:09:55.541Z,0.00
2018-09-23T03:10:55.542Z,0.00
2018-09-23T03:11:55.520Z,0.00
2018-09-23T03:12:55.542Z,0.00
2018-09-23T03:13:55.496Z,0.00
2018-09-23T03:14:55.521Z,0.00
2018-09-23T03:16:03.173Z,0.00
2018-09-23T03:16:55.528Z,0.00
2018-09-23T03:17:55.466Z,0.00
2018-09-23T03:18:55.499Z,0.00
2018-09-23T03:19:55.446Z,0.00
2018-09-23T03:20:55.455Z,0.00
2018-09-23T03:21:55.419Z,0.00
2018-09-23T03:22:55.411Z,0.00
2018-09-23T03:23:55.383Z,0.00
2018-09-23T03:24:55.395Z,0.00
2018-09-23T03:25:55.377Z,0.00
2018-09-23T03:26:55.391Z,0.00
2018-09-23T03:27:55.361Z,0.00
2018-09-23T03:28:55.328Z,0.00
2018-09-23T03:29:55.324Z,0.00
2018-09-23T03:31:04.448Z,0.00
2018-09-23T03:31:55.333Z,0.00
2018-09-23T03:32:55.326Z,0.00
2018-09-23T03:33:55.289Z,0.00
2018-09-23T03:34:55.294Z,0.00
2018-09-23T03:35:55.250Z,0.00
2018-09-23T03:36:55.267Z,0.00
2018-09-23T03:37:55.317Z,0.00
2018-09-23T03:38:55.299Z,0.00
2018-09-23T03:39:55.338Z,0.00
2018-09-23T03:40:55.192Z,0.00
2018-09-23T03:41:55.204Z,0.00
2018-09-23T03:42:55.170Z,0.00
2018-09-23T03:44:06.230Z,0.00
2018-09-23T03:44:55.286Z,0.00
2018-09-23T03:45:55.249Z,0.00
2018-09-23T03:46:55.142Z,0.00
2018-09-23T03:47:55.141Z,0.00
2018-09-23T03:48:55.145Z,0.00
2018-09-23T03:49:55.103Z,0.00
2018-09-23T03:50:55.121Z,0.00
2018-09-23T03:51:55.072Z,0.00
2018-09-23T03:52:55.063Z,0.00
2018-09-23T03:53:55.160Z,0.00
2018-09-23T03:54:55.080Z,0.00
2018-09-23T03:55:55.129Z,0.00
2018-09-23T03:56:55.044Z,0.00
2018-09-23T03:58:02.788Z,0.00
2018-09-23T03:58:54.999Z,0.00
2018-09-23T03:59:55.029Z,0.00
2018-09-23T04:00:55.023Z,0.00
2018-09-23T04:01:55.032Z,0.00
2018-09-23T04:02:54.995Z,0.00
2018-09-23T04:03:55.056Z,0.00
2018-09-23T04:04:54.928Z,0.00
2018-09-23T04:05:54.951Z,0.00
2018-09-23T04:06:54.921Z,0.00
2018-09-23T04:07:54.896Z,0.00
2018-09-23T04:08:54.881Z,0.00
2018-09-23T04:09:54.898Z,0.00
2018-09-23T04:10:54.858Z,0.00
2018-09-23T04:12:04.380Z,0.00
2018-09-23T04:12:54.872Z,0.00
2018-09-23T04:13:54.858Z,0.00
2018-09-23T04:14:54.828Z,0.00
2018-09-23T04:15:54.821Z,0.00
2018-09-23T04:16:54.917Z,0.00
2018-09-23T04:17:54.849Z,0.00
2018-09-23T04:18:54.795Z,0.00
2018-09-23T04:19:54.757Z,0.00
2018-09-23T04:20:54.761Z,0.00
2018-09-23T04:21:54.733Z,0.00
2018-09-23T04:22:54.730Z,0.00
2018-09-23T04:23:54.750Z,0.00
2018-09-23T04:24:54.699Z,0.00
2018-09-23T04:26:03.790Z,0.00
2018-09-23T04:26:54.684Z,0.00
2018-09-23T04:27:54.738Z,0.00
2018-09-23T04:28:54.659Z,0.00
2018-09-23T04:29:54.754Z,0.00
2018-09-23T04:30:54.660Z,0.00
2018-09-23T04:31:54.786Z,0.00
2018-09-23T04:32:54.627Z,0.00
2018-09-23T04:33:54.638Z,0.00
2018-09-23T04:34:54.598Z,0.00
2018-09-23T04:35:54.580Z,0.00
2018-09-23T04:36:54.568Z,0.00
2018-09-23T04:37:54.607Z,0.00
2018-09-23T04:38:54.583Z,0.00
2018-09-23T04:39:54.541Z,0.00
2018-09-23T04:40:54.519Z,0.00
2018-09-23T04:41:54.523Z,0.00
2018-09-23T04:42:54.558Z,0.00
2018-09-23T04:43:54.507Z,0.00
2018-09-23T04:44:54.564Z,0.00
2018-09-23T04:45:54.486Z,0.00
2018-09-23T04:46:54.452Z,0.00
2018-09-23T04:47:54.461Z,0.00
2018-09-23T04:48:54.432Z,0.00
2018-09-23T04:49:54.437Z,0.00
2018-09-23T04:50:54.419Z,0.00
2018-09-23T04:51:54.397Z,0.00
2018-09-23T04:52:54.386Z,0.00
2018-09-23T04:54:02.405Z,0.00
2018-09-23T04:54:54.378Z,0.00
2018-09-23T04:55:54.389Z,0.00
2018-09-23T04:56:54.365Z,0.00
2018-09-23T04:57:54.449Z,0.00
2018-09-23T04:58:54.388Z,0.00
2018-09-23T04:59:54.308Z,0.00
2018-09-23T05:00:54.299Z,4.00
2018-09-23T05:01:54.340Z,4.00
2018-09-23T05:02:54.279Z,0.00
2018-09-23T05:03:54.261Z,0.00
2018-09-23T05:04:54.256Z,0.00
2018-09-23T05:05:54.245Z,0.00
2018-09-23T05:06:54.230Z,4.00
2018-09-23T05:07:54.235Z,0.00
2018-09-23T05:08:54.204Z,4.00
2018-09-23T05:09:54.197Z,0.00
2018-09-23T05:10:54.199Z,4.00
2018-09-23T05:11:54.172Z,4.00
2018-09-23T05:12:54.191Z,4.00
2018-09-23T05:13:54.170Z,4.00
2018-09-23T05:14:54.155Z,4.00
2018-09-23T05:15:54.129Z,4.00
2018-09-23T05:16:54.118Z,8.00
2018-09-23T05:17:54.129Z,4.00
2018-09-23T05:18:54.109Z,4.00
2018-09-23T05:19:54.100Z,8.00
2018-09-23T05:20:54.071Z,8.00
2018-09-23T05:21:54.059Z,8.00
2018-09-23T05:22:54.049Z,12.00
2018-09-23T05:23:54.061Z,8.00
2018-09-23T05:24:54.048Z,8.00
2018-09-23T05:25:54.036Z,12.00
2018-09-23T05:26:54.028Z,12.00
2018-09-23T05:27:54.015Z,12.00
2018-09-23T05:28:53.983Z,8.00
2018-09-23T05:29:53.973Z,8.00
2018-09-23T05:30:54.031Z,12.00
2018-09-23T05:31:53.961Z,12.00
2018-09-23T05:32:53.984Z,8.00
2018-09-23T05:33:53.930Z,12.00
2018-09-23T05:34:53.917Z,12.00
2018-09-23T05:35:53.907Z,12.00
2018-09-23T05:36:53.909Z,12.00
2018-09-23T05:37:53.906Z,16.00
2018-09-23T05:38:53.889Z,20.00
2018-09-23T05:39:53.859Z,16.00
2018-09-23T05:40:53.848Z,16.00
2018-09-23T05:41:53.837Z,20.00
2018-09-23T05:42:53.826Z,24.00
2018-09-23T05:43:53.864Z,24.00
2018-09-23T05:44:53.824Z,20.00
2018-09-23T05:45:53.793Z,24.00
2018-09-23T05:46:53.781Z,28.00
2018-09-23T05:47:53.789Z,32.00
2018-09-23T05:49:01.933Z,28.00
2018-09-23T05:49:53.783Z,28.00
2018-09-23T05:50:53.763Z,32.00
2018-09-23T05:51:53.737Z,36.00
2018-09-23T05:52:53.734Z,32.00
2018-09-23T05:53:53.706Z,32.00
2018-09-23T05:54:53.731Z,36.00
2018-09-23T05:55:53.682Z,44.00
2018-09-23T05:56:53.781Z,48.00
2018-09-23T05:57:53.718Z,40.00
2018-09-23T05:58:53.707Z,52.00
2018-09-23T05:59:53.643Z,72.00
2018-09-23T06:00:53.624Z,72.00
2018-09-23T06:01:53.624Z,60.00
2018-09-23T06:02:53.639Z,64.00
2018-09-23T06:03:53.592Z,84.00
2018-09-23T06:04:53.676Z,96.00
2018-09-23T06:05:53.571Z,76.00
2018-09-23T06:06:53.557Z,56.00
2018-09-23T06:07:53.564Z,56.00
2018-09-23T06:08:53.586Z,56.00
2018-09-23T06:09:53.541Z,48.00
2018-09-23T06:10:53.526Z,36.00
2018-09-23T06:11:53.500Z,44.00
2018-09-23T06:12:53.507Z,64.00
2018-09-23T06:13:53.479Z,72.00
2018-09-23T06:14:53.466Z,68.00
2018-09-23T06:15:53.492Z,76.00
2018-09-23T06:16:53.468Z,100.00
2018-09-23T06:17:53.432Z,120.00
2018-09-23T06:18:53.421Z,104.00
2018-09-23T06:19:53.410Z,100.00
2018-09-23T06:21:01.055Z,116.00
2018-09-23T06:21:53.475Z,128.00
2018-09-23T06:22:53.417Z,104.00
2018-09-23T06:23:53.388Z,72.00
2018-09-23T06:24:53.416Z,72.00
2018-09-23T06:25:53.356Z,84.00
2018-09-23T06:26:53.383Z,80.00
2018-09-23T06:27:53.321Z,64.00
2018-09-23T06:28:53.335Z,56.00
2018-09-23T06:29:53.315Z,68.00
2018-09-23T06:30:53.288Z,84.00
2018-09-23T06:31:53.299Z,80.00
2018-09-23T06:32:53.291Z,68.00
2018-09-23T06:33:53.253Z,80.00
2018-09-23T06:34:53.277Z,100.00
2018-09-23T06:35:53.230Z,92.00
2018-09-23T06:36:53.331Z,76.00
2018-09-23T06:37:53.240Z,80.00
2018-09-23T06:38:53.199Z,104.00
2018-09-23T06:39:53.198Z,108.00
2018-09-23T06:40:53.196Z,88.00
2018-09-23T06:41:53.167Z,76.00
2018-09-23T06:42:53.180Z,84.00
2018-09-23T06:43:53.143Z,96.00
2018-09-23T06:44:53.131Z,84.00
2018-09-23T06:45:53.180Z,72.00
2018-09-23T06:46:53.126Z,92.00
2018-09-23T06:47:53.193Z,116.00
2018-09-23T06:48:53.089Z,132.00
2018-09-23T06:49:53.088Z,120.00
2018-09-23T06:50:53.064Z,112.00
2018-09-23T06:51:53.079Z,128.00
2018-09-23T06:52:53.329Z,132.00
2018-09-23T06:53:53.029Z,108.00
2018-09-23T06:54:53.055Z,84.00
2018-09-23T06:56:01.214Z,100.00
2018-09-23T06:56:53.041Z,116.00
2018-09-23T06:57:52.988Z,128.00
2018-09-23T06:58:53.309Z,100.00
2018-09-23T06:59:53.055Z,92.00
2018-09-23T07:00:52.951Z,112.00
2018-09-23T07:01:52.942Z,124.00
2018-09-23T07:02:53.267Z,108.00
2018-09-23T07:03:53.117Z,100.00
2018-09-23T07:04:53.128Z,108.00
2018-09-23T07:05:53.087Z,136.00
2018-09-23T07:06:52.924Z,120.00
2018-09-23T07:07:52.875Z,100.00
2018-09-23T07:08:52.909Z,124.00
2018-09-23T07:09:52.854Z,156.00
2018-09-23T07:10:52.853Z,152.00
2018-09-23T07:11:52.926Z,136.00
2018-09-23T07:12:52.830Z,136.00
2018-09-23T07:13:52.817Z,172.00
2018-09-23T07:15:00.839Z,176.00
2018-09-23T07:15:52.865Z,132.00
2018-09-23T07:16:52.802Z,128.00
2018-09-23T07:17:53.027Z,144.00
2018-09-23T07:18:52.988Z,152.00
2018-09-23T07:19:52.956Z,128.00
2018-09-23T07:20:52.867Z,108.00
2018-09-23T07:21:53.106Z,132.00
2018-09-23T07:22:52.818Z,164.00
2018-09-23T07:23:52.823Z,160.00
2018-09-23T07:24:52.683Z,136.00
2018-09-23T07:25:52.707Z,132.00
2018-09-23T07:26:52.664Z,156.00
2018-09-23T07:27:52.648Z,144.00
2018-09-23T07:28:52.755Z,124.00
2018-09-23T07:29:52.714Z,108.00
2018-09-23T07:30:52.613Z,124.00
2018-09-23T07:31:52.613Z,152.00
2018-09-23T07:32:52.594Z,148.00
2018-09-23T07:33:52.582Z,136.00
2018-09-23T07:35:02.134Z,140.00
2018-09-23T07:35:52.608Z,164.00
2018-09-23T07:36:52.686Z,172.00
2018-09-23T07:37:52.618Z,144.00
2018-09-23T07:38:52.831Z,120.00
2018-09-23T07:39:52.689Z,152.00
2018-09-23T07:40:52.526Z,180.00
2018-09-23T07:41:52.489Z,164.00
2018-09-23T07:42:52.507Z,132.00
2018-09-23T07:43:52.485Z,128.00
2018-09-23T07:44:52.465Z,144.00
2018-09-23T07:45:52.491Z,156.00
2018-09-23T07:46:52.454Z,136.00
2018-09-23T07:47:52.455Z,124.00
2018-09-23T07:48:52.420Z,136.00
2018-09-23T07:49:52.403Z,160.00
2018-09-23T07:50:52.424Z,140.00
2018-09-23T07:51:52.379Z,108.00
2018-09-23T07:52:52.386Z,132.00
2018-09-23T07:54:02.138Z,164.00
2018-09-23T07:54:52.432Z,148.00
2018-09-23T07:55:52.361Z,112.00
2018-09-23T07:56:52.355Z,132.00
2018-09-23T07:57:52.446Z,164.00
2018-09-23T07:58:52.597Z,144.00
2018-09-23T07:59:52.334Z,112.00
2018-09-23T08:00:52.287Z,124.00
2018-09-23T08:01:52.324Z,156.00
2018-09-23T08:02:52.283Z,148.00
2018-09-23T08:03:52.248Z,128.00
2018-09-23T08:04:52.369Z,140.00
2018-09-23T08:05:52.240Z,172.00
2018-09-23T08:06:52.212Z,176.00
2018-09-23T08:07:52.248Z,176.00
2018-09-23T08:08:52.235Z,196.00
2018-09-23T08:09:52.178Z,212.00
2018-09-23T08:10:52.236Z,200.00
2018-09-23T08:11:52.157Z,156.00
2018-09-23T08:12:52.231Z,132.00
2018-09-23T08:14:00.182Z,136.00
2018-09-23T08:14:52.489Z,148.00
2018-09-23T08:15:52.491Z,140.00
2018-09-23T08:16:52.331Z,136.00
2018-09-23T08:17:52.409Z,180.00
2018-09-23T08:18:52.232Z,208.00
2018-09-23T08:19:52.197Z,192.00
2018-09-23T08:20:52.093Z,176.00
2018-09-23T08:21:52.098Z,232.00
2018-09-23T08:22:52.081Z,280.00
2018-09-23T08:23:52.133Z,256.00
2018-09-23T08:24:52.039Z,224.00
2018-09-23T08:25:52.022Z,212.00
2018-09-23T08:26:51.991Z,236.00
2018-09-23T08:27:51.992Z,240.00
2018-09-23T08:28:51.966Z,220.00
2018-09-23T08:29:51.974Z,188.00
2018-09-23T08:30:51.980Z,220.00
2018-09-23T08:31:51.931Z,220.00
2018-09-23T08:32:51.941Z,184.00
2018-09-23T08:33:59.931Z,148.00
2018-09-23T08:34:52.069Z,176.00
2018-09-23T08:35:52.102Z,196.00
2018-09-23T08:36:51.977Z,168.00
2018-09-23T08:37:52.015Z,144.00
2018-09-23T08:38:51.898Z,164.00
2018-09-23T08:39:51.850Z,184.00
2018-09-23T08:40:51.870Z,168.00
2018-09-23T08:41:51.831Z,144.00
2018-09-23T08:42:51.883Z,164.00
2018-09-23T08:43:51.821Z,196.00
2018-09-23T08:44:51.854Z,176.00
2018-09-23T08:45:51.777Z,144.00
2018-09-23T08:46:51.763Z,148.00
2018-09-23T08:47:51.771Z,180.00
2018-09-23T08:48:51.795Z,180.00
2018-09-23T08:49:51.778Z,156.00
2018-09-23T08:50:51.737Z,160.00
2018-09-23T08:51:51.771Z,188.00
2018-09-23T08:52:59.930Z,204.00
2018-09-23T08:53:51.711Z,184.00
2018-09-23T08:54:51.931Z,164.00
2018-09-23T08:55:51.775Z,200.00
2018-09-23T08:56:51.973Z,220.00
2018-09-23T08:57:51.755Z,204.00
2018-09-23T08:58:51.626Z,192.00
2018-09-23T08:59:51.769Z,236.00
2018-09-23T09:00:51.611Z,284.00
2018-09-23T09:01:51.592Z,272.00
2018-09-23T09:02:51.604Z,296.00
2018-09-23T09:03:51.570Z,304.00
2018-09-23T09:04:51.558Z,320.00
2018-09-23T09:05:51.555Z,288.00
2018-09-23T09:06:51.537Z,232.00
2018-09-23T09:07:51.634Z,220.00
2018-09-23T09:08:51.517Z,264.00
2018-09-23T09:09:51.504Z,256.00
2018-09-23T09:10:51.494Z,248.00
2018-09-23T09:11:59.638Z,228.00
2018-09-23T09:12:51.509Z,312.00
2018-09-23T09:13:51.877Z,320.00
2018-09-23T09:14:51.548Z,328.00
2018-09-23T09:15:51.691Z,308.00
2018-09-23T09:16:51.630Z,284.00
2018-09-23T09:17:51.515Z,352.00
2018-09-23T09:18:51.508Z,336.00
2018-09-23T09:19:51.444Z,296.00
2018-09-23T09:20:51.381Z,252.00
2018-09-23T09:21:51.400Z,308.00
2018-09-23T09:22:51.368Z,360.00
2018-09-23T09:23:51.383Z,360.00
2018-09-23T09:24:51.334Z,332.00
2018-09-23T09:25:51.335Z,288.00
2018-09-23T09:26:51.367Z,352.00
2018-09-23T09:27:51.304Z,340.00
2018-09-23T09:28:51.330Z,308.00
2018-09-23T09:29:51.305Z,256.00
2018-09-23T09:30:51.291Z,260.00
2018-09-23T09:31:51.257Z,272.00
2018-09-23T09:32:51.242Z,252.00
2018-09-23T09:33:51.232Z,236.00
2018-09-23T09:34:51.268Z,208.00
2018-09-23T09:35:51.219Z,228.00
2018-09-23T09:36:51.221Z,268.00
2018-09-23T09:37:51.186Z,252.00
2018-09-23T09:38:51.231Z,240.00
2018-09-23T09:39:51.167Z,188.00
2018-09-23T09:40:51.153Z,204.00
2018-09-23T09:41:51.177Z,216.00
2018-09-23T09:42:51.151Z,192.00
2018-09-23T09:43:51.125Z,188.00
2018-09-23T09:44:51.130Z,192.00
2018-09-23T09:45:51.097Z,228.00
2018-09-23T09:46:51.088Z,220.00
2018-09-23T09:47:51.112Z,192.00
2018-09-23T09:48:51.086Z,208.00
2018-09-23T09:49:51.053Z,228.00
2018-09-23T09:50:51.048Z,256.00
2018-09-23T09:51:51.042Z,224.00
2018-09-23T09:52:51.022Z,232.00
2018-09-23T09:53:51.037Z,300.00
2018-09-23T09:54:51.023Z,284.00
2018-09-23T09:55:50.992Z,244.00
2018-09-23T09:56:50.978Z,188.00
2018-09-23T09:57:50.973Z,176.00
2018-09-23T09:58:50.952Z,180.00
2018-09-23T09:59:50.992Z,164.00
2018-09-23T10:00:50.955Z,128.00
2018-09-23T10:01:50.918Z,108.00
2018-09-23T10:02:50.908Z,124.00
2018-09-23T10:03:50.956Z,144.00
2018-09-23T10:04:50.895Z,136.00
2018-09-23T10:05:50.915Z,116.00
2018-09-23T10:06:50.885Z,120.00
2018-09-23T10:07:50.852Z,136.00
2018-09-23T10:08:50.854Z,148.00
2018-09-23T10:09:50.850Z,132.00
2018-09-23T10:10:50.819Z,120.00
2018-09-23T10:11:50.900Z,160.00
2018-09-23T10:12:50.795Z,192.00
2018-09-23T10:13:50.786Z,188.00
2018-09-23T10:14:50.775Z,156.00
2018-09-23T10:15:50.781Z,152.00
2018-09-23T10:16:50.751Z,160.00
2018-09-23T10:17:50.802Z,160.00
2018-09-23T10:18:50.732Z,124.00
2018-09-23T10:19:50.719Z,100.00
2018-09-23T10:20:50.729Z,104.00
2018-09-23T10:21:50.717Z,124.00
2018-09-23T10:22:50.759Z,108.00
2018-09-23T10:23:50.740Z,88.00
2018-09-23T10:24:50.659Z,92.00
2018-09-23T10:25:50.649Z,100.00
2018-09-23T10:26:50.672Z,100.00
2018-09-23T10:27:50.643Z,80.00
2018-09-23T10:28:50.635Z,68.00
2018-09-23T10:29:50.657Z,76.00
2018-09-23T10:30:58.859Z,100.00
2018-09-23T10:31:50.742Z,100.00
2018-09-23T10:32:50.610Z,84.00
2018-09-23T10:33:50.635Z,84.00
2018-09-23T10:34:50.593Z,96.00
2018-09-23T10:35:50.823Z,104.00
2018-09-23T10:36:50.583Z,100.00
2018-09-23T10:37:50.515Z,92.00
2018-09-23T10:38:50.536Z,116.00
2018-09-23T10:39:50.489Z,144.00
2018-09-23T10:40:50.479Z,140.00
2018-09-23T10:41:50.505Z,120.00
2018-09-23T10:42:50.478Z,108.00
2018-09-23T10:43:50.463Z,148.00
2018-09-23T10:44:50.468Z,160.00
2018-09-23T10:45:50.427Z,176.00
2018-09-23T10:46:50.452Z,200.00
2018-09-23T10:47:50.406Z,236.00
2018-09-23T10:48:50.415Z,256.00
2018-09-23T10:49:50.399Z,256.00
2018-09-23T10:50:50.382Z,284.00
2018-09-23T10:51:50.353Z,260.00
2018-09-23T10:52:50.345Z,312.00
2018-09-23T10:53:50.377Z,328.00
2018-09-23T10:54:50.336Z,252.00
2018-09-23T10:55:50.310Z,176.00
2018-09-23T10:56:50.318Z,196.00
2018-09-23T10:57:50.293Z,204.00
2018-09-23T10:58:50.275Z,172.00
2018-09-23T10:59:50.298Z,128.00
2018-09-23T11:00:50.276Z,136.00
2018-09-23T11:01:50.242Z,168.00
2018-09-23T11:02:50.253Z,196.00
2018-09-23T11:03:50.280Z,184.00
2018-09-23T11:04:50.206Z,184.00
2018-09-23T11:05:50.197Z,224.00
2018-09-23T11:06:50.231Z,240.00
2018-09-23T11:07:50.175Z,220.00
2018-09-23T11:08:50.171Z,180.00
2018-09-23T11:09:50.209Z,180.00
2018-09-23T11:10:50.142Z,172.00
2018-09-23T11:11:59.715Z,152.00
2018-09-23T11:12:50.214Z,124.00
2018-09-23T11:13:50.158Z,120.00
2018-09-23T11:14:50.279Z,160.00
2018-09-23T11:15:50.108Z,200.00
2018-09-23T11:16:50.075Z,200.00
2018-09-23T11:17:50.145Z,180.00
2018-09-23T11:18:50.203Z,204.00
2018-09-23T11:19:50.150Z,212.00
2018-09-23T11:20:50.131Z,192.00
2018-09-23T11:21:50.029Z,156.00
2018-09-23T11:22:50.068Z,172.00
2018-09-23T11:23:50.019Z,228.00
2018-09-23T11:24:50.061Z,256.00
2018-09-23T11:25:49.995Z,268.00
2018-09-23T11:26:49.969Z,268.00
2018-09-23T11:27:49.961Z,260.00
2018-09-23T11:28:49.943Z,276.00
2018-09-23T11:29:49.947Z,252.00
2018-09-23T11:30:50.101Z,220.00
2018-09-23T11:31:58.179Z,212.00
2018-09-23T11:32:50.004Z,232.00
2018-09-23T11:33:50.012Z,216.00
2018-09-23T11:34:49.969Z,168.00
2018-09-23T11:35:49.951Z,116.00
2018-09-23T11:36:49.881Z,120.00
2018-09-23T11:37:49.863Z,148.00
2018-09-23T11:38:49.879Z,156.00
2018-09-23T11:39:49.863Z,140.00
2018-09-23T11:40:49.802Z,212.00
2018-09-23T11:41:49.840Z,264.00
2018-09-23T11:42:49.809Z,264.00
2018-09-23T11:43:49.785Z,220.00
2018-09-23T11:44:49.760Z,240.00
2018-09-23T11:45:49.743Z,252.00
2018-09-23T11:46:49.770Z,208.00
2018-09-23T11:47:49.736Z,168.00
2018-09-23T11:48:49.725Z,144.00
2018-09-23T11:49:49.710Z,128.00
2018-09-23T11:50:57.595Z,108.00
2018-09-23T11:51:49.702Z,72.00
2018-09-23T11:52:49.668Z,60.00
2018-09-23T11:53:49.718Z,76.00
2018-09-23T11:54:49.781Z,92.00
2018-09-23T11:55:49.981Z,96.00
2018-09-23T11:56:49.671Z,76.00
2018-09-23T11:57:49.605Z,96.00
2018-09-23T11:58:49.649Z,108.00
2018-09-23T11:59:49.626Z,96.00
2018-09-23T12:00:49.577Z,100.00
2018-09-23T12:01:49.560Z,132.00
2018-09-23T12:02:49.626Z,148.00
2018-09-23T12:03:49.538Z,140.00
2018-09-23T12:04:49.563Z,128.00
2018-09-23T12:05:49.517Z,160.00
2018-09-23T12:06:49.510Z,192.00
2018-09-23T12:07:49.534Z,176.00
2018-09-23T12:08:49.513Z,148.00
2018-09-23T12:09:57.396Z,164.00
2018-09-23T12:10:49.513Z,224.00
2018-09-23T12:11:49.480Z,232.00
2018-09-23T12:12:49.484Z,220.00
2018-09-23T12:13:49.533Z,256.00
2018-09-23T12:14:49.757Z,280.00
2018-09-23T12:15:49.510Z,280.00
2018-09-23T12:16:49.391Z,260.00
2018-09-23T12:17:49.381Z,256.00
2018-09-23T12:18:49.424Z,240.00
2018-09-23T12:19:49.356Z,224.00
2018-09-23T12:20:49.381Z,192.00
2018-09-23T12:21:49.376Z,244.00
2018-09-23T12:22:49.325Z,340.00
2018-09-23T12:23:49.316Z,312.00
2018-09-23T12:24:49.305Z,224.00
2018-09-23T12:25:49.465Z,176.00
2018-09-23T12:26:49.340Z,144.00
2018-09-23T12:27:49.265Z,116.00
2018-09-23T12:28:57.296Z,100.00
2018-09-23T12:29:49.294Z,108.00
2018-09-23T12:30:49.296Z,112.00
2018-09-23T12:31:49.429Z,108.00
2018-09-23T12:32:49.356Z,72.00
2018-09-23T12:33:49.258Z,80.00
2018-09-23T12:34:49.237Z,88.00
2018-09-23T12:35:49.232Z,72.00
2018-09-23T12:36:49.166Z,56.00
2018-09-23T12:37:49.229Z,60.00
2018-09-23T12:38:49.159Z,64.00
2018-09-23T12:39:49.170Z,56.00
2018-09-23T12:40:49.151Z,52.00
2018-09-23T12:41:49.107Z,56.00
2018-09-23T12:42:49.099Z,64.00
2018-09-23T12:43:49.089Z,56.00
2018-09-23T12:44:49.094Z,60.00
2018-09-23T12:45:49.110Z,76.00
2018-09-23T12:46:49.055Z,84.00
2018-09-23T12:47:49.044Z,64.00
2018-09-23T12:48:49.041Z,60.00
2018-09-23T12:49:49.018Z,60.00
2018-09-23T12:50:49.023Z,68.00
2018-09-23T12:51:49.053Z,72.00
2018-09-23T12:52:48.985Z,88.00